Oakfield, GA (31772)

7:10 AM EDT on August 30, 2016 (GMT -0400)
Lyle Farms | | Change Station

Elev 285 ft 31.98 °N, 83.96 °W | Updated 11 minutes ago

Clear
Clear
73.4 °F
Feels Like 70 °F
N
0.0
Wind Variable Wind from SSE
Gusts 3.0 mph

Today
High -- | Low -- °F
--% Chance of Precip.
Yesterday
High -- | Low -- °F
Precip. -- in
Pressure 30.04 in
Visibility 10.0 miles
Clouds Clear
Heat Index 70 °F
Dew Point 71 °F
Humidity 93%
Rainfall 0.00 in
Snow Depth Not available.
7:10 AM 8:01 PM
Waning Crescent, 4% visible
METAR KCKF 301055Z AUTO 05004KT 10SM CLR 24/23 A3004 RMK AO2 T02360229
Pressure 30.04 in
Visibility 10.0 miles
Clouds Clear
Heat Index 70 °F
Dew Point 71 °F
Humidity 93%
Rainfall 0.00 in
Snow Depth Not available.
7:10 AM 8:01 PM
Waning Crescent, 4% visible
METAR KCKF 301055Z AUTO 05004KT 10SM CLR 24/23 A3004 RMK AO2 T02360229

10-Day Weather Forecast

Almanac

Astronomy

Aug. 30, 2016 Rise Set
Actual Time
Civil Twilight
Nautical Twilight
Astronomical Twilight
Moon
Length of Visible Light
Length of Day
Tomorrow will be .
, % of the Moon is Illuminated

Today's Extremes

State Highs State Lows

Community

WunderPhotos

Upload Photos

1,935,805 photos uploaded!

WunderBlog® & News

Nearby

Air Quality

  Air Quality AQ Index Pollutant
Not available.

Snow Depth

Station Depth Elevation

Earthquake Activity

City Distance Mag. Time & Date
Minimum magnitude displayed is 2.5.

Coastal Water Temperatures

Place Temperature

Stations

Nearby Weather Stations

Station Location Temp. Windchill Dew Point Humidity Wind Precip. Elev Updated Type
                   

Watches & Warnings

There are currently no watches in effect.